Time;durP1;ratioP1;P1;durP2;ratioP2;P2;SDS_P1;SDS_P2;PMS_P1;PMS_P2;Temp;Humidity;BMP_temperature;BMP_pressure;BME280_temperature;BME280_humidity;BME280_pressure;Samples;Min_cycle;Max_cycle;Signal;HPM_P1;HPM_P2
2022/04/18 00:01:48;;;;;;;3.33;2.70;;;4.80;90.30;;;;;;5037462;28;20550;-73
2022/04/18 00:04:14;;;;;;;3.20;3.00;;;4.70;92.20;;;;;;5051687;28;20204;-74
2022/04/18 00:06:40;;;;;;;2.83;2.40;;;4.60;93.60;;;;;;5035075;28;20204;-73
2022/04/18 00:09:06;;;;;;;3.63;3.10;;;4.50;94.00;;;;;;5050972;28;20196;-74
2022/04/18 00:11:32;;;;;;;4.67;2.77;;;4.50;95.00;;;;;;5049463;28;20188;-74
2022/04/18 00:13:58;;;;;;;2.63;2.43;;;4.40;95.70;;;;;;5040018;28;20725;-75
2022/04/18 00:16:24;;;;;;;2.73;2.53;;;4.40;96.20;;;;;;5046885;28;20223;-75
2022/04/18 00:18:50;;;;;;;2.90;2.63;;;4.50;96.70;;;;;;5049123;28;20190;-74
2022/04/18 00:21:15;;;;;;;3.27;2.63;;;4.60;97.00;;;;;;5048584;28;20267;-74
2022/04/18 00:23:43;;;;;;;4.00;2.83;;;4.70;97.30;;;;;;5044302;28;20211;-73
2022/04/18 00:26:08;;;;;;;3.33;2.90;;;4.80;97.10;;;;;;5047878;28;20270;-73
2022/04/18 00:28:34;;;;;;;3.57;2.53;;;4.80;96.90;;;;;;5047313;28;20263;-73
2022/04/18 00:30:59;;;;;;;2.73;2.50;;;4.90;96.70;;;;;;5050022;28;20188;-73
2022/04/18 00:33:25;;;;;;;3.73;3.13;;;4.80;96.40;;;;;;5050914;28;20247;-73
2022/04/18 00:35:52;;;;;;;5.13;3.17;;;4.80;96.80;;;;;;5048974;28;20204;-73
2022/04/18 00:38:18;;;;;;;3.33;2.93;;;4.70;96.90;;;;;;5048019;28;20252;-75
2022/04/18 00:40:43;;;;;;;3.13;2.93;;;4.50;98.50;;;;;;5050370;28;20218;-75
2022/04/18 00:43:09;;;;;;;3.00;2.80;;;4.40;99.10;;;;;;5029905;28;20247;-75
2022/04/18 00:45:35;;;;;;;3.23;2.90;;;4.20;99.90;;;;;;5045182;28;20200;-75
2022/04/18 00:48:01;;;;;;;2.97;2.77;;;4.20;99.90;;;;;;5046113;28;20222;-75
2022/04/18 00:50:28;;;;;;;3.67;2.80;;;4.20;99.90;;;;;;5048879;28;20192;-74
2022/04/18 00:52:55;;;;;;;4.43;2.80;;;4.10;99.90;;;;;;5050886;28;20188;-74
2022/04/18 00:55:23;;;;;;;3.20;2.90;;;3.90;99.90;;;;;;5049010;28;20223;-74
2022/04/18 00:57:51;;;;;;;3.23;2.93;;;3.90;99.90;;;;;;5046254;28;20591;-74
2022/04/18 01:00:17;;;;;;;3.30;3.00;;;4.00;99.90;;;;;;5051104;28;20217;-75
2022/04/18 01:02:42;;;;;;;4.13;3.07;;;4.00;99.90;;;;;;5054549;28;20171;-74
2022/04/18 01:05:08;;;;;;;2.73;2.53;;;4.10;99.90;;;;;;5054296;28;20209;-75
2022/04/18 01:07:35;;;;;;;2.87;2.67;;;4.10;99.90;;;;;;5048808;28;20539;-75
2022/04/18 01:10:03;;;;;;;3.33;3.03;;;4.00;99.90;;;;;;5048725;28;20181;-75
2022/04/18 01:12:29;;;;;;;2.73;2.53;;;3.80;99.90;;;;;;5052850;28;20814;-75
2022/04/18 01:14:54;;;;;;;2.90;2.70;;;3.60;99.90;;;;;;5042821;28;20298;-75
2022/04/18 01:17:20;;;;;;;3.30;3.00;;;3.50;99.90;;;;;;5047544;28;20539;-74
2022/04/18 01:19:46;;;;;;;2.67;2.47;;;3.40;99.90;;;;;;5050261;28;20647;-74
2022/04/18 01:22:12;;;;;;;3.27;3.03;;;3.40;99.90;;;;;;5054723;28;20230;-74
2022/04/18 01:30:08;;;;;;;4.43;2.87;;;3.30;99.90;;;;;;5053165;28;20190;-74
2022/04/18 01:32:33;;;;;;;3.10;2.67;;;3.30;99.90;;;;;;5033999;28;20179;-74
2022/04/18 01:34:59;;;;;;;3.90;2.90;;;3.20;99.90;;;;;;5051273;28;20211;-74
2022/04/18 01:37:25;;;;;;;3.27;2.97;;;3.20;99.90;;;;;;5051027;28;20185;-74
2022/04/18 01:39:50;;;;;;;2.87;2.67;;;3.20;99.90;;;;;;5053215;28;20189;-74
2022/04/18 01:42:16;;;;;;;4.30;3.23;;;3.20;99.90;;;;;;5053519;28;20269;-74
2022/04/18 01:44:42;;;;;;;3.20;2.90;;;3.20;99.90;;;;;;5052048;28;20207;-74
2022/04/18 01:47:08;;;;;;;3.90;3.03;;;3.20;99.90;;;;;;5052532;28;20184;-74
2022/04/18 01:49:33;;;;;;;3.00;2.80;;;3.20;99.90;;;;;;5052780;28;20679;-74
2022/04/18 01:51:59;;;;;;;3.67;2.93;;;3.20;99.90;;;;;;5049140;28;20192;-74
2022/04/18 01:54:25;;;;;;;3.37;3.07;;;3.10;99.90;;;;;;5052604;28;20215;-74
2022/04/18 01:56:51;;;;;;;2.83;2.60;;;3.00;99.90;;;;;;5054397;28;20180;-74
2022/04/18 01:59:16;;;;;;;3.07;2.87;;;3.10;99.90;;;;;;5048864;28;20674;-74
2022/04/18 02:01:42;;;;;;;3.33;3.03;;;3.10;99.90;;;;;;5044026;28;20548;-74
2022/04/18 02:04:08;;;;;;;2.93;2.60;;;3.20;99.90;;;;;;5051473;28;20246;-74
2022/04/18 02:06:34;;;;;;;3.37;3.10;;;3.30;99.90;;;;;;5056476;28;20183;-74
2022/04/18 02:08:59;;;;;;;3.07;2.77;;;3.30;99.90;;;;;;5048994;28;20184;-74
2022/04/18 02:11:25;;;;;;;4.07;2.83;;;3.10;99.90;;;;;;5054231;28;20344;-74
2022/04/18 02:13:52;;;;;;;3.27;2.93;;;3.00;99.90;;;;;;5052156;28;20207;-75
2022/04/18 02:16:18;;;;;;;3.00;2.70;;;3.00;99.90;;;;;;5050553;28;20240;-75
2022/04/18 02:18:43;;;;;;;3.07;2.63;;;3.00;99.90;;;;;;5048799;28;20183;-75
2022/04/18 02:21:11;;;;;;;4.23;2.43;;;3.10;99.90;;;;;;5037136;28;20194;-74
2022/04/18 02:23:38;;;;;;;3.63;3.07;;;3.20;99.90;;;;;;5056181;28;20233;-74
2022/04/18 02:26:04;;;;;;;3.50;3.07;;;3.10;99.90;;;;;;5049395;28;20176;-74
2022/04/18 02:28:30;;;;;;;2.80;2.60;;;2.90;99.90;;;;;;5050689;28;20191;-74
2022/04/18 02:30:57;;;;;;;2.50;2.30;;;2.80;99.90;;;;;;5054062;28;20180;-74
2022/04/18 02:33:23;;;;;;;3.07;2.87;;;2.70;99.90;;;;;;5046438;28;20200;-75
2022/04/18 02:35:48;;;;;;;4.40;2.93;;;2.70;99.90;;;;;;5049026;28;20564;-74
2022/04/18 02:38:14;;;;;;;2.83;2.47;;;2.60;99.90;;;;;;5052850;28;20215;-73
2022/04/18 02:40:40;;;;;;;3.97;3.00;;;2.70;99.90;;;;;;5053490;28;20557;-74
2022/04/18 02:43:06;;;;;;;3.27;2.70;;;2.80;99.90;;;;;;5046608;28;20191;-73
2022/04/18 02:45:32;;;;;;;3.53;3.10;;;2.90;99.90;;;;;;5053448;28;20184;-73
2022/04/18 02:47:59;;;;;;;3.03;2.53;;;2.70;99.90;;;;;;5050729;28;20180;-73
2022/04/18 02:50:25;;;;;;;4.37;2.70;;;2.60;99.90;;;;;;5047480;28;20632;-72
2022/04/18 02:52:51;;;;;;;2.77;2.57;;;2.50;99.90;;;;;;5049291;28;20233;-72
2022/04/18 02:55:17;;;;;;;3.00;2.57;;;2.40;99.90;;;;;;5043826;28;20223;-73
2022/04/18 02:57:42;;;;;;;3.23;2.93;;;2.40;99.90;;;;;;5054373;28;20271;-72
2022/04/18 03:00:10;;;;;;;3.17;2.87;;;2.40;99.90;;;;;;5051504;28;20615;-72
2022/04/18 03:02:37;;;;;;;2.83;2.63;;;2.30;99.90;;;;;;5055257;28;20193;-72
2022/04/18 03:05:04;;;;;;;3.33;2.80;;;2.20;99.90;;;;;;5039022;28;20550;-72
2022/04/18 03:07:30;;;;;;;5.20;2.83;;;2.20;99.90;;;;;;5035110;28;20267;-72
2022/04/18 03:09:56;;;;;;;3.00;2.80;;;2.20;99.90;;;;;;5055063;28;20191;-73
2022/04/18 03:12:22;;;;;;;3.60;2.90;;;2.20;99.90;;;;;;5051257;28;20196;-73
2022/04/18 03:14:49;;;;;;;3.30;3.00;;;2.10;99.90;;;;;;5050042;28;20238;-73
2022/04/18 03:17:15;;;;;;;6.80;3.33;;;2.10;99.90;;;;;;5054161;28;20233;-73
2022/04/18 03:19:41;;;;;;;3.33;2.97;;;2.10;99.90;;;;;;5056457;28;20171;-73
2022/04/18 03:22:07;;;;;;;3.33;3.03;;;2.10;99.90;;;;;;5052129;28;20275;-73
2022/04/18 03:24:33;;;;;;;3.00;2.77;;;2.20;99.90;;;;;;5055184;28;20218;-73
2022/04/18 03:27:00;;;;;;;3.60;3.30;;;2.10;99.90;;;;;;5053734;28;20329;-73
2022/04/18 03:29:26;;;;;;;3.27;2.97;;;2.10;99.90;;;;;;5054296;28;20564;-73
2022/04/18 03:31:53;;;;;;;3.07;2.63;;;2.10;99.90;;;;;;5056928;28;20175;-73
2022/04/18 03:34:20;;;;;;;3.53;3.23;;;2.00;99.90;;;;;;5049507;28;20207;-73
2022/04/18 03:42:14;;;;;;;3.43;3.13;;;1.90;99.90;;;;;;5051510;28;20229;-72
2022/04/18 03:44:43;;;;;;;3.40;3.07;;;1.90;99.90;;;;;;5054685;28;20199;-72
2022/04/18 03:47:11;;;;;;;3.47;3.00;;;1.80;99.90;;;;;;5055694;28;20222;-72
2022/04/18 03:49:38;;;;;;;6.37;3.73;;;1.80;99.90;;;;;;5058324;28;20260;-72
2022/04/18 03:52:04;;;;;;;5.33;3.47;;;1.70;99.90;;;;;;5054008;28;20192;-72
2022/04/18 03:54:30;;;;;;;4.37;3.30;;;1.70;99.90;;;;;;5034834;28;20211;-72
2022/04/18 03:56:56;;;;;;;4.37;2.93;;;1.80;99.90;;;;;;5035678;28;20176;-72
2022/04/18 03:59:21;;;;;;;3.77;3.20;;;1.70;99.90;;;;;;5045704;28;20184;-74
2022/04/18 04:01:47;;;;;;;3.63;2.87;;;1.80;99.90;;;;;;5053909;28;20229;-74
2022/04/18 04:04:12;;;;;;;4.67;3.10;;;1.70;99.90;;;;;;5056394;28;20230;-72
2022/04/18 04:06:38;;;;;;;3.13;2.77;;;1.80;99.90;;;;;;5061860;28;20626;-74
2022/04/18 04:09:03;;;;;;;2.97;2.67;;;1.70;99.90;;;;;;5061086;28;20187;-73
2022/04/18 04:11:29;;;;;;;3.20;2.80;;;1.70;99.90;;;;;;5063144;28;20266;-73
2022/04/18 04:13:55;;;;;;;3.07;2.87;;;1.60;99.90;;;;;;5059381;28;20195;-73
2022/04/18 04:16:21;;;;;;;3.17;2.87;;;1.60;99.90;;;;;;5052467;28;20207;-71
2022/04/18 04:18:49;;;;;;;2.93;2.73;;;1.60;99.90;;;;;;5060595;28;20226;-72
2022/04/18 04:21:14;;;;;;;3.40;2.80;;;1.60;99.90;;;;;;5057621;28;20180;-72
2022/04/18 04:23:40;;;;;;;3.40;2.90;;;1.60;99.90;;;;;;5057443;28;20214;-71
2022/04/18 04:26:07;;;;;;;2.77;2.57;;;1.60;99.90;;;;;;5057179;28;20650;-71
2022/04/18 04:28:33;;;;;;;3.13;2.90;;;1.60;99.90;;;;;;5059624;28;20333;-73
2022/04/18 04:30:59;;;;;;;3.30;3.00;;;1.60;99.90;;;;;;5059240;28;20184;-72
2022/04/18 04:33:25;;;;;;;3.67;3.03;;;1.70;99.90;;;;;;5056908;28;20685;-72
2022/04/18 04:35:50;;;;;;;5.73;3.20;;;1.70;99.90;;;;;;5050148;28;20362;-73
2022/04/18 04:38:16;;;;;;;3.80;3.50;;;1.70;99.90;;;;;;5056648;28;20725;-73
2022/04/18 04:40:41;;;;;;;3.20;3.00;;;1.70;99.90;;;;;;5060200;28;20657;-73
2022/04/18 04:43:07;;;;;;;4.00;2.80;;;1.70;99.90;;;;;;5056878;28;20179;-72
2022/04/18 04:45:33;;;;;;;3.20;2.90;;;1.80;99.90;;;;;;5058061;28;20555;-73
2022/04/18 04:47:59;;;;;;;5.03;2.90;;;1.80;99.90;;;;;;5042385;28;20665;-73
2022/04/18 04:50:24;;;;;;;2.93;2.63;;;1.80;99.90;;;;;;5052832;28;20549;-72
2022/04/18 04:52:50;;;;;;;4.07;2.87;;;2.00;99.90;;;;;;5054708;28;20183;-72
2022/04/18 04:55:16;;;;;;;3.33;3.13;;;2.00;99.90;;;;;;5050099;28;20265;-72
2022/04/18 04:57:41;;;;;;;3.60;3.27;;;2.00;99.90;;;;;;5049329;28;20270;-72
2022/04/18 05:00:07;;;;;;;3.47;3.27;;;2.10;99.90;;;;;;5046446;28;20284;-73
2022/04/18 05:02:33;;;;;;;3.77;3.20;;;2.10;99.90;;;;;;5041496;28;20238;-73
2022/04/18 05:04:58;;;;;;;5.60;3.40;;;2.10;99.90;;;;;;5042456;28;20203;-73
2022/04/18 05:07:24;;;;;;;2.83;2.63;;;2.20;99.90;;;;;;5043181;28;20616;-73
2022/04/18 05:09:50;;;;;;;4.93;3.63;;;2.30;99.90;;;;;;5043944;28;20250;-73
2022/04/18 05:12:17;;;;;;;3.37;2.90;;;2.30;99.90;;;;;;5043799;28;20188;-72
2022/04/18 05:14:42;;;;;;;3.53;3.23;;;2.40;99.90;;;;;;5054597;28;20215;-72
2022/04/18 05:17:08;;;;;;;3.23;2.93;;;2.50;99.90;;;;;;5059113;28;20195;-81
2022/04/18 05:19:34;;;;;;;3.37;3.03;;;2.60;99.90;;;;;;5038442;28;20555;-80
2022/04/18 05:21:59;;;;;;;3.80;3.33;;;2.70;99.90;;;;;;5029978;28;20179;-79
2022/04/18 05:24:25;;;;;;;3.30;3.03;;;2.80;99.90;;;;;;5044984;28;20204;-77
2022/04/18 05:26:50;;;;;;;3.77;3.30;;;2.90;99.90;;;;;;5055558;28;20646;-78
2022/04/18 05:29:16;;;;;;;4.00;3.70;;;3.00;99.90;;;;;;5053445;28;20530;-79
2022/04/18 05:31:41;;;;;;;4.50;4.07;;;3.10;99.90;;;;;;5043097;28;20179;-79
2022/04/18 05:34:07;;;;;;;3.40;3.10;;;3.20;99.90;;;;;;5054392;28;20289;-80
2022/04/18 05:36:33;;;;;;;3.30;3.10;;;3.30;99.90;;;;;;5054103;28;20183;-77
2022/04/18 05:38:58;;;;;;;3.43;3.13;;;3.40;99.90;;;;;;5062104;28;20175;-76
2022/04/18 05:41:24;;;;;;;4.10;2.83;;;3.50;99.90;;;;;;5050714;28;20255;-77
2022/04/18 05:43:49;;;;;;;4.23;3.83;;;3.60;99.90;;;;;;5032380;28;20192;-79
2022/04/18 05:46:16;;;;;;;3.33;3.10;;;3.90;99.90;;;;;;5054568;28;20191;-74
2022/04/18 05:48:41;;;;;;;3.63;3.17;;;4.10;99.90;;;;;;5058753;28;20206;-73
2022/04/18 05:51:08;;;;;;;4.93;3.53;;;4.20;99.90;;;;;;5055980;28;20183;-73
2022/04/18 05:53:34;;;;;;;5.00;3.60;;;4.30;99.90;;;;;;5051678;28;20212;-74
2022/04/18 05:55:59;;;;;;;3.80;3.50;;;4.40;99.90;;;;;;5050989;28;20533;-74
2022/04/18 05:58:26;;;;;;;3.30;3.00;;;4.50;99.90;;;;;;5053981;28;20203;-75
2022/04/18 06:00:52;;;;;;;3.23;2.93;;;4.60;99.90;;;;;;5055045;28;20221;-74
2022/04/18 06:03:18;;;;;;;3.87;3.33;;;4.80;99.90;;;;;;5052010;28;20212;-73
2022/04/18 06:05:44;;;;;;;4.10;3.70;;;4.90;99.90;;;;;;5051906;28;20183;-74
2022/04/18 06:08:09;;;;;;;3.70;3.40;;;5.00;99.90;;;;;;5050418;28;20183;-73
2022/04/18 06:10:41;;;;;;;4.00;3.70;;;5.10;99.90;;;;;;5051348;28;20195;-73
2022/04/18 06:13:10;;;;;;;4.20;3.80;;;5.10;99.90;;;;;;5056466;28;20226;-73
2022/04/18 06:15:37;;;;;;;3.60;3.30;;;5.10;99.90;;;;;;5049583;28;20202;-72
2022/04/18 06:18:02;;;;;;;3.40;3.20;;;5.20;99.90;;;;;;5050680;28;20180;-73
2022/04/18 06:20:28;;;;;;;4.20;3.50;;;5.30;99.90;;;;;;5055765;28;20183;-72
2022/04/18 06:22:53;;;;;;;3.43;3.03;;;5.30;99.90;;;;;;5033497;28;20650;-71
2022/04/18 06:25:19;;;;;;;4.47;3.20;;;5.40;99.90;;;;;;5053636;28;20334;-71
2022/04/18 06:27:45;;;;;;;3.10;2.90;;;5.60;99.90;;;;;;5058755;28;20183;-71
2022/04/18 06:30:10;;;;;;;5.93;3.83;;;5.80;99.90;;;;;;5058308;28;20194;-71
2022/04/18 06:32:37;;;;;;;3.73;3.00;;;6.00;99.90;;;;;;5061761;28;20267;-71
2022/04/18 06:35:04;;;;;;;3.53;3.23;;;6.10;99.90;;;;;;5051394;28;20200;-71
2022/04/18 06:37:31;;;;;;;3.87;3.57;;;6.10;99.90;;;;;;5054780;28;20183;-72
2022/04/18 06:39:57;;;;;;;4.17;3.77;;;6.30;99.90;;;;;;5058808;28;20175;-72
2022/04/18 06:42:23;;;;;;;3.53;3.23;;;6.40;99.90;;;;;;5042029;28;20714;-72
2022/04/18 06:44:48;;;;;;;4.00;3.17;;;6.50;99.90;;;;;;5037771;28;20210;-72
2022/04/18 06:47:14;;;;;;;3.47;3.17;;;6.60;99.90;;;;;;5038926;28;20215;-72
2022/04/18 06:49:40;;;;;;;3.03;2.83;;;6.70;99.90;;;;;;5050861;28;20677;-72
2022/04/18 06:52:06;;;;;;;3.27;3.07;;;6.80;99.90;;;;;;5042243;28;20191;-72
2022/04/18 06:54:32;;;;;;;3.00;2.80;;;6.90;99.90;;;;;;5042494;28;20218;-72
2022/04/18 06:57:01;;;;;;;3.70;3.40;;;7.00;99.90;;;;;;5051326;28;20183;-72
2022/04/18 06:59:30;;;;;;;3.60;3.30;;;7.10;99.90;;;;;;5056081;28;20571;-72
2022/04/18 07:01:58;;;;;;;3.47;3.20;;;7.20;99.90;;;;;;5059562;28;20171;-73
2022/04/18 07:04:24;;;;;;;3.37;3.07;;;7.20;99.90;;;;;;5049726;28;20678;-73
2022/04/18 07:06:50;;;;;;;3.53;2.93;;;7.40;99.90;;;;;;5044244;28;20211;-72
2022/04/18 07:09:17;;;;;;;3.73;3.43;;;7.50;99.90;;;;;;5053318;28;20176;-75
2022/04/18 07:11:45;;;;;;;3.33;3.03;;;7.60;99.90;;;;;;5052412;28;20190;-73
2022/04/18 07:14:11;;;;;;;3.42;3.13;;;7.70;99.90;;;;;;5054280;28;20256;-76
2022/04/18 07:16:37;;;;;;;3.10;2.90;;;7.80;99.90;;;;;;5049691;28;20236;-74
2022/04/18 07:19:03;;;;;;;3.67;3.42;;;7.90;99.90;;;;;;5046358;28;20179;-74
2022/04/18 07:21:30;;;;;;;3.40;3.10;;;8.20;99.90;;;;;;5052867;28;20221;-75
2022/04/18 07:23:56;;;;;;;3.42;3.13;;;8.30;99.90;;;;;;5047613;28;20192;-75
2022/04/18 07:26:22;;;;;;;3.60;2.90;;;8.50;99.90;;;;;;5047709;28;20634;-74
2022/04/18 07:28:48;;;;;;;3.20;2.90;;;8.60;99.90;;;;;;5052071;28;20183;-74
2022/04/18 07:31:14;;;;;;;4.25;3.03;;;8.80;99.90;;;;;;5046336;28;20262;-74
2022/04/18 07:33:40;;;;;;;3.42;3.10;;;8.90;99.90;;;;;;5049981;28;20196;-74
2022/04/18 07:36:06;;;;;;;4.00;3.03;;;9.10;99.90;;;;;;5061453;28;20670;-74
2022/04/18 07:38:50;;;;;;;3.33;3.03;;;9.20;99.90;;;;;;5039027;28;20192;-74
2022/04/18 07:41:21;;;;;;;3.35;3.10;;;9.30;99.90;;;;;;5051027;28;20758;-74
2022/04/18 07:43:47;;;;;;;3.08;2.80;;;9.40;99.90;;;;;;5059135;28;20422;-74
2022/04/18 07:46:15;;;;;;;3.97;3.58;;;9.50;99.90;;;;;;5059652;28;20665;-74
2022/04/18 07:48:41;;;;;;;2.88;2.65;;;9.60;99.90;;;;;;5058609;28;20172;-74
2022/04/18 07:53:52;;;;;;;3.15;2.92;;;9.80;99.90;;;;;;5055839;28;20305;-74
2022/04/18 07:56:18;;;;;;;5.50;3.22;;;9.90;99.90;;;;;;5049993;28;20290;-74
2022/04/18 07:58:43;;;;;;;4.00;3.40;;;10.00;99.90;;;;;;5056994;28;20557;-74
2022/04/18 08:01:09;;;;;;;3.10;2.80;;;10.10;99.90;;;;;;5059389;28;20186;-74
2022/04/18 08:03:35;;;;;;;2.58;2.38;;;10.20;99.90;;;;;;5063277;28;20805;-74
2022/04/18 08:06:01;;;;;;;4.15;2.92;;;10.30;98.90;;;;;;5060617;28;20184;-74
2022/04/18 08:08:27;;;;;;;3.33;2.85;;;10.40;98.30;;;;;;5054182;28;20562;-74
2022/04/18 08:10:52;;;;;;;3.00;2.67;;;10.40;97.10;;;;;;5056122;28;20176;-74
2022/04/18 08:13:18;;;;;;;3.80;2.63;;;10.50;99.90;;;;;;5059833;28;20286;-74
2022/04/18 08:15:44;;;;;;;2.35;2.25;;;10.60;96.30;;;;;;5063821;28;20238;-74
2022/04/18 08:18:09;;;;;;;2.60;2.40;;;10.70;96.10;;;;;;5059868;28;20736;-74
2022/04/18 08:20:35;;;;;;;2.92;2.72;;;10.90;95.20;;;;;;5054474;28;20258;-75
2022/04/18 08:23:01;;;;;;;2.53;2.33;;;11.00;93.00;;;;;;5057095;28;20187;-74
2022/04/18 08:25:26;;;;;;;2.95;2.70;;;11.10;89.70;;;;;;5058153;28;20188;-74
2022/04/18 08:27:52;;;;;;;2.30;2.10;;;11.20;92.10;;;;;;5061631;28;20179;-74
2022/04/18 08:30:18;;;;;;;2.10;1.90;;;11.20;83.40;;;;;;5055741;28;20651;-74
2022/04/18 08:32:43;;;;;;;2.10;2.00;;;11.30;82.00;;;;;;5064320;28;20503;-74
2022/04/18 08:35:10;;;;;;;4.68;3.97;;;11.40;83.40;;;;;;5056320;28;20216;-74
2022/04/18 08:37:36;;;;;;;2.08;1.98;;;11.40;90.20;;;;;;5058967;28;20556;-74
2022/04/18 08:40:04;;;;;;;2.15;2.05;;;11.50;86.90;;;;;;5057891;28;20176;-75
2022/04/18 08:42:34;;;;;;;2.40;2.20;;;11.60;84.50;;;;;;5058996;28;20564;-74
2022/04/18 08:45:03;;;;;;;2.13;1.95;;;11.70;81.90;;;;;;5056985;28;20204;-74
2022/04/18 08:52:58;;;;;;;2.50;2.30;;;12.00;78.90;;;;;;5053706;28;20688;-74
2022/04/18 08:55:24;;;;;;;2.10;1.90;;;12.10;80.30;;;;;;5054429;28;20248;-74
2022/04/18 08:57:49;;;;;;;1.92;1.83;;;12.20;79.30;;;;;;5059397;28;20266;-74
2022/04/18 09:00:15;;;;;;;2.00;1.90;;;12.40;72.50;;;;;;5053998;28;20274;-74
2022/04/18 09:02:41;;;;;;;2.33;2.10;;;12.50;77.30;;;;;;5060623;28;20172;-74
2022/04/18 09:05:11;;;;;;;2.00;1.88;;;12.70;74.00;;;;;;5053566;28;20211;-74
2022/04/18 09:07:40;;;;;;;1.90;1.80;;;12.90;75.30;;;;;;5057231;28;20700;-74
2022/04/18 09:10:07;;;;;;;2.20;2.03;;;13.30;74.10;;;;;;5055504;28;20525;-74
2022/04/18 09:12:33;;;;;;;2.13;1.75;;;14.40;67.70;;;;;;5063221;28;20647;-74
2022/04/18 09:14:59;;;;;;;3.13;1.90;;;16.70;64.10;;;;;;5052951;28;20301;-75
2022/04/18 09:17:28;;;;;;;2.25;2.03;;;19.50;54.60;;;;;;5058988;28;20223;-75
2022/04/18 09:20:09;;;;;;;2.40;2.20;;;22.10;49.40;;;;;;5055300;28;20263;-75
2022/04/18 09:22:42;;;;;;;2.00;1.90;;;23.60;45.50;;;;;;5055109;28;20180;-75
2022/04/18 09:25:20;;;;;;;1.75;1.65;;;25.00;41.70;;;;;;5058731;28;20196;-75
2022/04/18 09:27:57;;;;;;;2.00;1.90;;;26.40;40.20;;;;;;5057846;28;20232;-75
2022/04/18 09:30:25;;;;;;;2.35;2.15;;;26.50;38.30;;;;;;5049602;28;20187;-75
2022/04/18 09:33:07;;;;;;;1.90;1.80;;;25.10;38.60;;;;;;5050304;28;20206;-74
2022/04/18 09:35:33;;;;;;;2.67;1.83;;;24.20;40.90;;;;;;5053806;28;20208;-76
2022/04/18 09:38:11;;;;;;;2.10;2.00;;;24.80;40.40;;;;;;5050626;28;20175;-75
2022/04/18 09:40:37;;;;;;;1.80;1.70;;;26.50;38.50;;;;;;5052853;28;20555;-75
2022/04/18 09:43:03;;;;;;;1.98;1.88;;;28.00;37.10;;;;;;5047542;28;20730;-75
2022/04/18 09:45:29;;;;;;;1.98;1.88;;;28.20;35.40;;;;;;5041428;28;20207;-75
2022/04/18 09:47:56;;;;;;;2.28;1.95;;;28.10;33.10;;;;;;5045534;28;20648;-75
2022/04/18 09:53:37;;;;;;;2.00;1.90;;;23.90;37.20;;;;;;5045900;28;20847;-75
2022/04/18 09:56:03;;;;;;;2.33;2.13;;;21.60;41.40;;;;;;5046817;28;20288;-74
2022/04/18 09:58:31;;;;;;;2.42;1.95;;;20.50;42.00;;;;;;5044236;28;20204;-74
2022/04/18 10:00:59;;;;;;;2.03;1.92;;;19.60;43.30;;;;;;5047864;28;20604;-75
2022/04/18 10:03:25;;;;;;;2.10;1.90;;;18.80;43.40;;;;;;5048246;28;20196;-75
2022/04/18 10:05:51;;;;;;;2.10;2.00;;;17.90;44.70;;;;;;5050686;28;20183;-75
2022/04/18 10:08:18;;;;;;;2.42;2.22;;;17.70;45.40;;;;;;5056911;28;20255;-77
2022/04/18 10:10:44;;;;;;;2.20;2.00;;;17.60;44.50;;;;;;5057070;28;20183;-76
2022/04/18 10:13:10;;;;;;;2.08;1.98;;;18.10;43.80;;;;;;5056017;28;20195;-77
2022/04/18 10:15:37;;;;;;;1.88;1.77;;;19.00;43.70;;;;;;5058458;28;20204;-76
2022/04/18 10:18:05;;;;;;;2.28;2.10;;;20.10;42.10;;;;;;5046089;28;20238;-75
2022/04/18 10:20:53;;;;;;;1.95;1.85;;;21.30;43.20;;;;;;5048490;28;20190;-80
2022/04/18 10:23:37;;;;;;;2.08;1.98;;;22.90;40.60;;;;;;5048151;28;20271;-76
2022/04/18 10:26:11;;;;;;;2.10;1.88;;;24.20;38.20;;;;;;5044197;28;20208;-75
2022/04/18 10:28:42;;;;;;;2.25;2.10;;;25.60;37.30;;;;;;5048728;28;20187;-76
2022/04/18 10:31:17;;;;;;;1.70;1.58;;;24.80;37.70;;;;;;5038596;28;20667;-75
2022/04/18 10:33:44;;;;;;;2.40;1.80;;;24.00;37.40;;;;;;5043302;28;20309;-75
2022/04/18 10:36:10;;;;;;;2.20;2.00;;;25.20;36.70;;;;;;5042908;28;20282;-76
2022/04/18 10:38:37;;;;;;;2.10;2.00;;;26.70;36.80;;;;;;5046323;28;20318;-75
2022/04/18 10:41:23;;;;;;;2.58;2.05;;;27.40;35.30;;;;;;5051575;28;20271;-76
2022/04/18 10:44:03;;;;;;;2.00;1.90;;;27.10;35.60;;;;;;5035093;28;20203;-75
2022/04/18 10:46:29;;;;;;;2.08;1.95;;;29.00;35.50;;;;;;5048417;28;20176;-75
2022/04/18 10:48:56;;;;;;;1.90;1.75;;;29.20;32.50;;;;;;5053318;28;20188;-76
2022/04/18 10:51:35;;;;;;;1.90;1.80;;;28.50;32.10;;;;;;5053357;28;20715;-76
2022/04/18 10:54:13;;;;;;;1.95;1.85;;;27.80;33.60;;;;;;5053575;28;20207;-76
2022/04/18 10:57:01;;;;;;;2.17;1.92;;;27.40;33.60;;;;;;5056527;28;20661;-75
2022/04/18 10:59:31;;;;;;;2.00;1.90;;;27.50;33.30;;;;;;5056958;28;20181;-75
2022/04/18 11:02:01;;;;;;;1.65;1.55;;;28.00;32.90;;;;;;5058245;28;20167;-76
2022/04/18 11:04:29;;;;;;;2.15;1.98;;;29.40;32.50;;;;;;5053136;28;20250;-76
2022/04/18 11:07:03;;;;;;;2.38;1.83;;;30.40;32.90;;;;;;5051704;28;20227;-75
2022/04/18 11:09:32;;;;;;;2.30;2.10;;;30.60;31.00;;;;;;5054119;28;20176;-76
2022/04/18 11:12:10;;;;;;;1.88;1.77;;;29.80;32.40;;;;;;5045277;28;20176;-75
2022/04/18 11:14:38;;;;;;;1.70;1.60;;;28.70;33.40;;;;;;5042553;28;20199;-75
2022/04/18 11:17:05;;;;;;;1.80;1.70;;;28.20;35.50;;;;;;5053392;28;20182;-76
2022/04/18 11:19:35;;;;;;;1.55;1.50;;;27.30;33.50;;;;;;5050649;28;20214;-76
2022/04/18 11:22:01;;;;;;;2.35;1.40;;;26.00;35.50;;;;;;5043863;28;20181;-76
2022/04/18 11:24:37;;;;;;;1.98;1.85;;;26.50;35.60;;;;;;5040738;28;20258;-76
2022/04/18 11:27:13;;;;;;;1.40;1.40;;;27.70;34.60;;;;;;5041786;28;20586;-77
2022/04/18 11:29:41;;;;;;;1.90;1.80;;;29.70;33.40;;;;;;5060154;28;20266;-75
2022/04/18 11:32:07;;;;;;;2.15;1.85;;;31.00;32.30;;;;;;5056694;28;20179;-76
2022/04/18 11:34:35;;;;;;;1.70;1.60;;;31.90;29.90;;;;;;5057846;28;20200;-77
2022/04/18 11:37:04;;;;;;;1.83;1.73;;;32.10;29.70;;;;;;5049653;28;20533;-77
2022/04/18 11:39:49;;;;;;;1.92;1.85;;;31.50;29.50;;;;;;5056657;28;20263;-77
2022/04/18 11:42:23;;;;;;;1.98;1.50;;;28.90;30.80;;;;;;5054139;28;20182;-77
2022/04/18 11:44:50;;;;;;;1.60;1.60;;;28.50;31.80;;;;;;5062727;28;20202;-76
2022/04/18 11:47:20;;;;;;;1.75;1.65;;;29.40;31.00;;;;;;5058248;28;20184;-76
2022/04/18 11:49:46;;;;;;;1.83;1.70;;;29.20;30.90;;;;;;5052190;28;20202;-76
2022/04/18 11:52:20;;;;;;;1.85;1.75;;;27.20;31.90;;;;;;5056659;28;20183;-76
2022/04/18 11:55:17;;;;;;;1.55;1.45;;;25.90;33.80;;;;;;5062160;28;20210;-76
2022/04/18 11:57:47;;;;;;;1.80;1.70;;;26.10;33.40;;;;;;5057484;28;20203;-77
2022/04/18 12:00:15;;;;;;;1.55;1.55;;;25.70;35.20;;;;;;5059195;28;20176;-76
2022/04/18 12:08:12;;;;;;;1.50;1.40;;;25.20;35.20;;;;;;5056901;28;20669;-77
2022/04/18 12:10:42;;;;;;;1.60;1.50;;;24.10;36.50;;;;;;5064928;28;20194;-77
2022/04/18 12:13:13;;;;;;;1.55;1.45;;;23.60;35.80;;;;;;5059115;28;20175;-77
2022/04/18 12:15:43;;;;;;;1.58;1.48;;;24.70;36.40;;;;;;5063310;28;20230;-77
2022/04/18 12:18:19;;;;;;;1.73;1.63;;;25.80;34.70;;;;;;5054387;28;20195;-77
2022/04/18 12:20:51;;;;;;;2.38;1.52;;;26.40;34.30;;;;;;5062272;28;20290;-76
2022/04/18 12:23:27;;;;;;;1.30;1.20;;;26.70;33.60;;;;;;5052234;28;20214;-76
2022/04/18 12:25:58;;;;;;;1.30;1.30;;;26.90;33.20;;;;;;5055927;28;20187;-76
2022/04/18 12:28:29;;;;;;;1.77;1.67;;;27.00;34.40;;;;;;5049603;28;20192;-76
2022/04/18 12:30:56;;;;;;;1.35;1.35;;;28.60;31.70;;;;;;5062041;28;20256;-77
2022/04/18 12:33:26;;;;;;;1.50;1.40;;;29.00;31.20;;;;;;5058196;28;20214;-76
2022/04/18 12:35:54;;;;;;;2.63;1.55;;;28.80;33.80;;;;;;5051377;28;20236;-76
2022/04/18 12:38:31;;;;;;;1.70;1.60;;;28.40;32.70;;;;;;5054136;28;20184;-76
2022/04/18 12:40:58;;;;;;;2.00;1.30;;;28.90;32.60;;;;;;5053504;28;20171;-75
2022/04/18 12:43:29;;;;;;;1.40;1.30;;;29.20;32.80;;;;;;5057294;28;20212;-76
2022/04/18 12:45:59;;;;;;;1.50;1.40;;;29.80;31.50;;;;;;5063041;28;20172;-75
2022/04/18 12:48:30;;;;;;;1.48;1.38;;;29.90;35.10;;;;;;5049752;28;20188;-75
2022/04/18 12:51:00;;;;;;;1.33;1.10;;;31.10;30.80;;;;;;5043822;28;20225;-72
2022/04/18 12:53:47;;;;;;;1.67;1.58;;;31.90;31.80;;;;;;5057120;28;20231;-71
2022/04/18 12:56:20;;;;;;;1.23;1.23;;;34.00;29.70;;;;;;5053800;28;20203;-72
2022/04/18 12:58:53;;;;;;;1.63;1.60;;;35.10;29.20;;;;;;5056551;28;20213;-72
2022/04/18 13:01:23;;;;;;;1.48;1.38;;;35.00;29.20;;;;;;5055742;28;20179;-72
2022/04/18 13:03:51;;;;;;;1.30;1.15;;;34.90;28.60;;;;;;5054599;28;20612;-73
2022/04/18 13:06:28;;;;;;;1.20;1.20;;;35.60;28.60;;;;;;5043536;28;20258;-73
2022/04/18 13:09:02;;;;;;;1.10;1.10;;;34.80;28.20;;;;;;5048295;28;20175;-72
2022/04/18 13:11:44;;;;;;;1.02;1.02;;;35.20;27.00;;;;;;5052115;28;20198;-72
2022/04/18 13:14:13;;;;;;;1.25;1.20;;;34.90;27.90;;;;;;5055997;28;20670;-72
2022/04/18 13:16:41;;;;;;;1.38;1.30;;;35.20;28.20;;;;;;5052771;28;20673;-72
2022/04/18 13:19:09;;;;;;;1.10;1.10;;;35.60;28.10;;;;;;5056487;28;20244;-72
2022/04/18 13:21:36;;;;;;;1.10;1.10;;;34.50;27.60;;;;;;5058071;28;20179;-72
2022/04/18 13:24:02;;;;;;;1.25;1.15;;;33.60;28.90;;;;;;5062867;28;20198;-72